Weather at Montreal / Pierre Elliott Trudeau International Airport

Public forecast

Using degrees Celsius for public forecast. Weather courtesy of forecast.io.

Current aviation weather report (METAR) for Montreal / Pierre Elliott Trudeau International Airport

Retrieved 2021/03/04 11:00 UTC (40 minutes ago):

CYUL 041100Z 30008KT 15SM BKN070 M07/M15 A2989 RMK AC7 SLP124

Aviation forecast (TAF) for Montreal / Pierre Elliott Trudeau International Airport

Retrieved 2021/03/04 09:42 UTC (2 hours ago):

TAF CYUL 040838Z 0409/0506 33010KT P6SM SCT080 TEMPO 0409/0412 OVC080 FM041500 28012G22KT P6SM SKC BECMG 0416/0418 28015G25KT FM042100 28018G28KT P6SM BKN040 OVC080 FM050100 28015G25KT P6SM -SN OVC040 RMK NXT FCST BY 041200Z